Quick Links (Output Below):   Max & Min Temps   /   Climate Reports   /   Zone Forecasts
River Forecasts   /   Forestry Forecasts   /   Aviation Forecasts   /   Radars   /   Features

Terminal Aerodrome Forecast (Arkadelphia)

Pick a Site:
Arkadelphia | El Dorado | Fayetteville | Fort Smith | Harrison | Highfill | Hot Springs | Jonesboro
Little Rock | Monticello | Mountain Home | Pine Bluff | Texarkana
 Forecast 

KADF 302320Z 3100/3124 VRB04KT P6SM VCFG BKN250
      TEMPO 3109/3113 5SM BR
     FM311300 05004KT P6SM SCT250
     FM311800 05007KT P6SM VCTS SCT040CB SCT250=


 Latest METARs (Observations) 
How to Decode METARs
01Z KADF 310056Z AUTO 05003KT 10SM CLR 29/25 A2996 RMK AO2 SLP147
         T02890250
         
00Z KADF 302356Z AUTO 05003KT 10SM CLR 31/25 A2996 RMK AO2 SLP144
         T03060250 10333 20300 58008
         
***** Today's Observations (Above) *****


23Z KADF 302256Z AUTO 07003KT 10SM CLR 31/24 A2997 RMK AO2 SLP149
         T03110244
         
22Z KADF 302156Z AUTO 08007KT 10SM SCT049 33/24 A2998 RMK AO2 SLP151
         T03280239
         
21Z KADF 302056Z AUTO VRB03KT 10SM CLR 33/24 A2998 RMK AO2 LTG DSNT NW
         SLP152 T03280244 58022
         
20Z KADF 301956Z AUTO 07005KT 10SM CLR 33/24 A3000 RMK AO2 SLP160
         T03280244
         
19Z KADF 301856Z AUTO VRB05KT 10SM CLR 33/24 A3003 RMK AO2 SLP168
         T03280244
         
18Z KADF 301756Z AUTO VRB04KT 10SM CLR 32/25 A3004 RMK AO2 SLP173
         T03220250 10322 20244 58006
         
17Z KADF 301656Z AUTO VRB03KT 10SM FEW030 31/26 A3006 RMK AO2 SLP178
         T03110256
         
16Z KADF 301556Z AUTO 05004KT 10SM CLR 31/26 A3006 RMK AO2 SLP180
         T03060256
         
***** Yesterday's Observations (Above) *****


Back to Main Page
http://www.srh.noaa.gov/lzk/qfcst.php

USA.gov is the U.S. government's official web portal to all federal, state and local government web resources and services.